Time;durP1;ratioP1;P1;durP2;ratioP2;P2;SDS_P1;SDS_P2;PMS_P1;PMS_P2;Temp;Humidity;BMP_temperature;BMP_pressure;BME280_temperature;BME280_humidity;BME280_pressure;Samples;Min_cycle;Max_cycle;Signal;HPM_P1;HPM_P2
2021/12/18 00:00:09;;;;;;;23.00;15.23;;;8.40;99.90;;;;;;5040488;28;20147;-59
2021/12/18 00:02:36;;;;;;;18.85;12.73;;;8.40;99.90;;;;;;5039315;28;20088;-60
2021/12/18 00:05:03;;;;;;;17.20;13.48;;;8.40;99.90;;;;;;5042092;28;20143;-60
2021/12/18 00:07:31;;;;;;;22.52;15.15;;;8.40;99.90;;;;;;5041648;28;20103;-60
2021/12/18 00:09:58;;;;;;;23.60;15.52;;;8.40;99.90;;;;;;5041864;28;20056;-60
2021/12/18 00:12:25;;;;;;;23.80;15.57;;;8.40;99.90;;;;;;5040378;28;20107;-61
2021/12/18 00:14:52;;;;;;;19.55;14.68;;;8.40;99.90;;;;;;5041106;28;20092;-60
2021/12/18 00:17:19;;;;;;;20.50;14.63;;;8.40;99.90;;;;;;5041726;28;20130;-60
2021/12/18 00:19:46;;;;;;;21.95;16.45;;;8.40;99.90;;;;;;5043485;28;20052;-61
2021/12/18 00:22:13;;;;;;;12.75;10.48;;;8.40;99.90;;;;;;5042738;28;20060;-61
2021/12/18 00:24:40;;;;;;;17.02;12.40;;;8.40;99.90;;;;;;5041801;28;20049;-61
2021/12/18 00:27:07;;;;;;;13.55;10.75;;;8.40;99.90;;;;;;5042589;28;20073;-61
2021/12/18 00:29:34;;;;;;;15.82;12.18;;;8.40;99.90;;;;;;4694312;28;10000863;-61
2021/12/18 00:32:01;;;;;;;13.65;9.65;;;8.50;99.90;;;;;;5046151;28;20306;-61
2021/12/18 00:34:27;;;;;;;12.70;9.63;;;8.50;99.90;;;;;;5048174;28;20080;-61
2021/12/18 00:36:54;;;;;;;14.68;8.07;;;8.50;99.90;;;;;;5048360;28;20114;-65
2021/12/18 00:39:21;;;;;;;11.55;8.38;;;8.50;99.90;;;;;;5048209;28;20473;-61
2021/12/18 00:42:00;;;;;;;17.27;10.15;;;8.50;99.90;;;;;;5048457;28;20110;-61
2021/12/18 00:44:26;;;;;;;12.32;8.43;;;8.50;99.90;;;;;;5045960;28;20103;-61
2021/12/18 00:46:53;;;;;;;13.73;8.45;;;8.50;99.90;;;;;;5048749;28;20359;-60
2021/12/18 00:49:22;;;;;;;14.52;9.55;;;8.50;99.90;;;;;;5048824;28;20397;-61
2021/12/18 00:51:49;;;;;;;11.20;8.77;;;8.50;99.90;;;;;;5048899;28;20091;-61
2021/12/18 00:54:16;;;;;;;14.18;8.80;;;8.50;99.90;;;;;;5049348;28;20124;-61
2021/12/18 00:56:42;;;;;;;11.25;7.90;;;8.50;99.90;;;;;;5048718;28;20136;-61
2021/12/18 00:59:09;;;;;;;15.27;9.77;;;8.60;99.80;;;;;;5049767;28;20090;-61
2021/12/18 01:01:36;;;;;;;16.35;10.88;;;8.60;99.80;;;;;;5049532;28;20076;-61
2021/12/18 01:04:03;;;;;;;10.88;9.30;;;8.60;99.80;;;;;;5048480;28;20136;-61
2021/12/18 01:06:30;;;;;;;11.13;9.55;;;8.60;99.70;;;;;;5049847;28;20127;-60
2021/12/18 01:08:57;;;;;;;12.88;9.85;;;8.60;99.80;;;;;;5049312;28;20052;-61
2021/12/18 01:11:33;;;;;;;15.30;9.80;;;8.60;99.80;;;;;;5047483;28;20049;-61
2021/12/18 01:25:07;;;;;;;16.95;12.88;;;8.50;99.90;;;;;;5048614;28;20470;-61
2021/12/18 01:27:35;;;;;;;14.32;11.95;;;8.50;99.90;;;;;;5049268;28;20048;-61
2021/12/18 01:30:04;;;;;;;15.75;12.73;;;8.50;99.90;;;;;;5048584;28;20052;-60
2021/12/18 01:32:31;;;;;;;14.70;11.43;;;8.50;99.90;;;;;;5047774;28;20037;-61
2021/12/18 01:34:58;;;;;;;16.30;11.98;;;8.50;99.90;;;;;;5047344;28;20148;-61
2021/12/18 01:37:26;;;;;;;20.98;13.30;;;8.50;99.90;;;;;;5049101;28;20216;-61
2021/12/18 01:39:53;;;;;;;18.33;12.77;;;8.50;99.90;;;;;;5048345;28;20064;-61
2021/12/18 01:53:11;;;;;;;21.27;14.63;;;8.50;99.90;;;;;;5047771;28;20076;-61
2021/12/18 01:55:39;;;;;;;22.60;16.38;;;8.50;99.90;;;;;;5048254;28;20080;-61
2021/12/18 01:58:06;;;;;;;29.00;17.88;;;8.40;99.90;;;;;;5030819;28;20045;-60
2021/12/18 02:00:36;;;;;;;27.60;20.30;;;8.40;99.90;;;;;;5048187;28;20098;-61
2021/12/18 02:03:03;;;;;;;24.98;15.73;;;8.50;99.90;;;;;;5048505;28;20050;-61
2021/12/18 02:05:30;;;;;;;25.73;17.05;;;8.50;99.90;;;;;;5047389;28;20428;-62
2021/12/18 02:07:57;;;;;;;22.33;17.80;;;8.50;99.90;;;;;;5049056;28;20117;-60
2021/12/18 02:10:28;;;;;;;22.75;15.73;;;8.40;99.90;;;;;;5046789;28;20055;-60
2021/12/18 02:20:56;;;;;;;21.40;16.60;;;8.50;99.90;;;;;;5047835;28;20164;-61
2021/12/18 02:23:23;;;;;;;15.23;12.70;;;8.40;99.90;;;;;;5046760;28;20079;-61
2021/12/18 02:25:49;;;;;;;24.25;17.30;;;8.40;99.90;;;;;;5046547;28;20053;-61
2021/12/18 02:28:21;;;;;;;22.98;15.95;;;8.40;99.90;;;;;;5048762;28;20073;-61
2021/12/18 02:30:49;;;;;;;22.55;17.08;;;8.40;99.90;;;;;;5047947;28;20076;-61
2021/12/18 02:33:16;;;;;;;25.13;17.35;;;8.40;99.90;;;;;;5046370;28;20053;-60
2021/12/18 02:35:47;;;;;;;20.60;15.90;;;8.40;99.90;;;;;;5047871;28;20044;-60
2021/12/18 02:38:25;;;;;;;20.88;15.30;;;8.40;99.90;;;;;;5048279;28;20068;-60
2021/12/18 02:43:30;;;;;;;16.83;13.85;;;8.40;99.90;;;;;;5047363;28;20056;-60
2021/12/18 02:46:00;;;;;;;17.15;13.52;;;8.30;99.90;;;;;;5047746;28;20052;-60
2021/12/18 02:48:28;;;;;;;18.38;14.98;;;8.30;99.90;;;;;;5047398;28;20053;-60
2021/12/18 02:50:58;;;;;;;20.60;14.32;;;8.30;99.90;;;;;;5039993;28;20124;-59
2021/12/18 02:53:25;;;;;;;24.65;15.60;;;8.30;99.90;;;;;;5047284;28;20083;-60
2021/12/18 02:56:12;;;;;;;24.88;18.55;;;8.30;99.90;;;;;;5047240;28;20056;-62
2021/12/18 02:58:42;;;;;;;21.20;15.27;;;8.30;99.90;;;;;;5047918;28;20110;-60
2021/12/18 03:01:10;;;;;;;21.80;17.13;;;8.30;99.90;;;;;;5046955;28;20725;-60
2021/12/18 03:03:40;;;;;;;19.92;16.88;;;8.30;99.90;;;;;;5046270;28;20358;-60
2021/12/18 03:09:54;;;;;;;24.88;17.65;;;8.40;99.90;;;;;;5044841;28;20098;-60
2021/12/18 03:27:18;;;;;;;25.80;16.98;;;8.30;99.90;;;;;;5045954;28;20041;-60
2021/12/18 03:29:45;;;;;;;24.20;17.23;;;8.30;99.90;;;;;;5046342;28;20045;-60
2021/12/18 03:32:12;;;;;;;24.52;18.20;;;8.30;99.90;;;;;;5046212;28;20053;-60
2021/12/18 03:34:39;;;;;;;26.17;17.85;;;8.30;99.90;;;;;;5045940;28;20072;-59
2021/12/18 03:37:06;;;;;;;29.52;19.55;;;8.30;99.90;;;;;;5022010;28;20094;-59
2021/12/18 03:39:33;;;;;;;32.28;20.63;;;8.40;99.90;;;;;;5047281;28;20063;-60
2021/12/18 03:41:59;;;;;;;24.33;19.35;;;8.40;99.90;;;;;;5046778;28;20088;-60
2021/12/18 03:44:26;;;;;;;25.67;18.05;;;8.40;99.90;;;;;;5046180;28;20049;-60
2021/12/18 03:46:53;;;;;;;30.05;19.25;;;8.40;99.90;;;;;;5047102;28;20055;-60
2021/12/18 03:49:20;;;;;;;26.80;19.33;;;8.40;99.90;;;;;;5045802;28;20094;-60
2021/12/18 03:51:47;;;;;;;22.95;15.77;;;8.40;99.90;;;;;;5047169;28;20072;-60
2021/12/18 03:54:13;;;;;;;20.77;16.13;;;8.30;99.90;;;;;;5045517;28;20145;-60
2021/12/18 03:56:40;;;;;;;20.05;15.32;;;8.30;99.90;;;;;;5047158;28;20095;-60
2021/12/18 03:59:07;;;;;;;26.50;15.63;;;8.20;99.90;;;;;;5028922;28;20045;-60
2021/12/18 04:01:34;;;;;;;22.38;14.43;;;8.30;99.90;;;;;;5045901;28;20053;-60
2021/12/18 04:04:00;;;;;;;18.27;14.23;;;8.30;99.90;;;;;;5036528;28;20102;-60
2021/12/18 04:06:28;;;;;;;17.30;14.25;;;8.30;99.90;;;;;;5049300;28;20059;-60
2021/12/18 04:08:55;;;;;;;22.85;15.57;;;8.20;99.90;;;;;;5050864;28;20068;-60
2021/12/18 04:11:22;;;;;;;24.13;15.35;;;8.20;99.90;;;;;;5049873;28;20084;-60
2021/12/18 04:13:48;;;;;;;29.10;15.95;;;8.20;99.90;;;;;;5050062;28;20048;-61
2021/12/18 04:16:16;;;;;;;24.17;18.08;;;8.20;99.90;;;;;;5049892;28;20040;-61
2021/12/18 04:18:43;;;;;;;22.80;17.30;;;8.20;99.90;;;;;;5050316;28;20092;-61
2021/12/18 04:21:10;;;;;;;23.85;18.23;;;8.20;99.90;;;;;;5050627;28;20167;-61
2021/12/18 04:23:36;;;;;;;25.77;18.52;;;8.20;99.90;;;;;;5049359;28;20091;-61
2021/12/18 04:26:03;;;;;;;27.25;18.42;;;8.20;99.90;;;;;;5049288;28;20048;-61
2021/12/18 04:28:30;;;;;;;21.23;16.38;;;8.20;99.90;;;;;;5050649;28;20048;-61
2021/12/18 04:30:57;;;;;;;24.25;18.20;;;8.20;99.90;;;;;;5049192;28;20084;-61
2021/12/18 04:33:24;;;;;;;23.05;17.42;;;8.20;99.90;;;;;;5049014;28;20045;-61
2021/12/18 04:35:51;;;;;;;22.02;16.77;;;8.20;99.90;;;;;;5050277;28;20070;-60
2021/12/18 04:38:18;;;;;;;25.20;16.80;;;8.10;99.90;;;;;;5050249;28;20049;-61
2021/12/18 04:40:44;;;;;;;28.15;19.35;;;8.20;99.90;;;;;;5050222;28;20562;-61
2021/12/18 04:43:11;;;;;;;26.17;17.70;;;8.10;99.90;;;;;;5049397;28;20102;-61
2021/12/18 04:45:38;;;;;;;24.65;17.52;;;8.10;99.90;;;;;;5049735;28;20041;-61
2021/12/18 04:48:05;;;;;;;26.98;18.83;;;8.10;99.90;;;;;;5048261;28;20099;-60
2021/12/18 04:50:32;;;;;;;24.70;17.98;;;8.10;99.90;;;;;;5048211;28;20045;-61
2021/12/18 04:52:59;;;;;;;27.45;19.25;;;8.10;99.90;;;;;;5048825;28;20044;-61
2021/12/18 04:55:26;;;;;;;33.67;20.45;;;8.10;99.90;;;;;;5049575;28;20045;-62
2021/12/18 04:57:54;;;;;;;29.58;18.83;;;8.10;99.90;;;;;;5048874;28;20118;-61
2021/12/18 05:00:22;;;;;;;27.80;18.45;;;8.10;99.90;;;;;;5049864;28;20049;-61
2021/12/18 05:02:51;;;;;;;28.92;19.77;;;8.10;99.90;;;;;;5049324;28;20053;-61
2021/12/18 05:05:18;;;;;;;26.75;17.80;;;8.20;99.90;;;;;;5049218;28;20103;-61
2021/12/18 05:07:45;;;;;;;31.40;19.67;;;8.20;99.90;;;;;;5049461;28;20037;-60
2021/12/18 05:10:12;;;;;;;32.83;19.55;;;8.20;99.90;;;;;;5049243;28;20044;-61
2021/12/18 05:12:39;;;;;;;34.78;20.30;;;8.20;99.90;;;;;;5049537;28;20075;-61
2021/12/18 05:15:06;;;;;;;34.90;20.45;;;8.20;99.90;;;;;;5049964;28;20041;-61
2021/12/18 05:17:33;;;;;;;32.63;20.10;;;8.20;99.90;;;;;;5048850;28;20045;-61
2021/12/18 05:20:00;;;;;;;36.45;20.95;;;8.20;99.90;;;;;;5049626;28;20045;-61
2021/12/18 05:22:27;;;;;;;32.03;20.15;;;8.20;99.90;;;;;;5047811;28;20045;-61
2021/12/18 05:24:53;;;;;;;30.98;19.95;;;8.20;99.90;;;;;;5049508;28;20049;-61
2021/12/18 05:27:20;;;;;;;32.97;17.92;;;8.20;99.90;;;;;;5047804;28;20049;-60
2021/12/18 05:29:47;;;;;;;33.92;19.23;;;8.20;99.90;;;;;;5049838;28;20045;-60
2021/12/18 05:32:13;;;;;;;32.47;20.95;;;8.20;99.90;;;;;;5049392;28;20064;-62
2021/12/18 05:34:41;;;;;;;34.42;19.38;;;8.20;99.90;;;;;;5049772;28;20083;-60
2021/12/18 05:37:19;;;;;;;36.78;21.65;;;8.30;99.90;;;;;;5048794;28;20073;-61
2021/12/18 05:39:47;;;;;;;37.78;21.25;;;8.20;99.90;;;;;;5049755;28;20041;-61
2021/12/18 05:42:14;;;;;;;34.90;21.13;;;8.20;99.90;;;;;;5048903;28;20078;-61
2021/12/18 05:44:41;;;;;;;34.03;20.67;;;8.30;99.90;;;;;;5048480;28;20095;-61
2021/12/18 05:47:08;;;;;;;36.15;21.92;;;8.20;99.90;;;;;;5048313;28;20099;-61
2021/12/18 05:49:35;;;;;;;37.65;20.08;;;8.30;99.90;;;;;;5048019;28;20354;-60
2021/12/18 05:52:02;;;;;;;34.60;20.27;;;8.30;99.90;;;;;;5048474;28;20099;-60
2021/12/18 05:54:29;;;;;;;30.92;18.75;;;8.30;99.90;;;;;;5048926;28;20053;-60
2021/12/18 05:56:56;;;;;;;34.65;20.95;;;8.30;99.90;;;;;;5048723;28;20072;-60
2021/12/18 05:59:22;;;;;;;40.85;22.65;;;8.30;99.90;;;;;;5048960;28;20103;-61
2021/12/18 06:01:49;;;;;;;38.00;20.83;;;8.30;99.90;;;;;;5048289;28;20077;-61
2021/12/18 06:04:16;;;;;;;38.25;22.48;;;8.20;99.90;;;;;;5048121;28;20098;-61
2021/12/18 06:06:43;;;;;;;40.00;22.88;;;8.20;99.90;;;;;;5047474;28;20492;-62
2021/12/18 06:09:11;;;;;;;44.05;23.02;;;8.30;99.90;;;;;;5048374;28;20083;-61
2021/12/18 06:11:39;;;;;;;41.00;22.77;;;8.30;99.90;;;;;;5048913;28;20041;-64
2021/12/18 06:14:07;;;;;;;41.25;24.23;;;8.30;99.90;;;;;;5048478;28;20041;-62
2021/12/18 06:16:33;;;;;;;40.45;22.20;;;8.30;99.90;;;;;;5049013;28;20044;-61
2021/12/18 06:19:00;;;;;;;41.67;23.33;;;8.30;99.90;;;;;;5048431;28;20099;-61
2021/12/18 06:21:27;;;;;;;37.25;21.02;;;8.30;99.90;;;;;;5048603;28;20041;-61
2021/12/18 06:23:54;;;;;;;40.50;22.08;;;8.30;99.90;;;;;;5048050;28;20077;-61
2021/12/18 06:26:22;;;;;;;42.33;21.38;;;8.30;99.90;;;;;;5048406;28;20064;-61
2021/12/18 06:28:49;;;;;;;45.58;23.38;;;8.30;99.90;;;;;;5047301;28;20056;-61
2021/12/18 06:31:31;;;;;;;39.85;22.42;;;8.30;99.90;;;;;;5043521;28;20069;-61
2021/12/18 06:33:58;;;;;;;39.45;21.48;;;8.30;99.90;;;;;;5047510;28;20076;-61
2021/12/18 06:36:26;;;;;;;45.10;21.65;;;8.30;99.90;;;;;;5048659;28;20045;-61
2021/12/18 06:38:53;;;;;;;43.90;22.38;;;8.40;99.90;;;;;;5048006;28;20053;-60
2021/12/18 06:41:19;;;;;;;38.00;19.58;;;8.40;99.90;;;;;;5047926;28;20068;-61
2021/12/18 06:43:46;;;;;;;38.50;21.85;;;8.30;99.90;;;;;;5046999;28;20064;-61
2021/12/18 06:46:13;;;;;;;39.08;20.10;;;8.40;99.90;;;;;;5046581;28;20140;-61
2021/12/18 06:48:40;;;;;;;40.22;22.33;;;8.40;99.90;;;;;;5047213;28;20076;-60
2021/12/18 06:51:06;;;;;;;41.53;20.92;;;8.40;99.90;;;;;;5047438;28;20171;-61
2021/12/18 06:53:33;;;;;;;40.10;22.42;;;8.40;99.90;;;;;;5047087;28;20106;-61
2021/12/18 06:56:00;;;;;;;42.70;21.60;;;8.40;99.90;;;;;;5047186;28;20175;-61
2021/12/18 06:58:27;;;;;;;43.55;23.27;;;8.40;99.90;;;;;;5048026;28;20080;-61
2021/12/18 07:00:54;;;;;;;47.63;22.15;;;8.40;99.90;;;;;;5047271;28;20076;-60
2021/12/18 07:03:21;;;;;;;42.70;21.58;;;8.40;99.90;;;;;;5047356;28;20419;-61
2021/12/18 07:05:48;;;;;;;42.90;22.33;;;8.40;99.90;;;;;;5045548;28;20396;-61
2021/12/18 07:08:15;;;;;;;44.35;21.27;;;8.40;99.90;;;;;;5047515;28;20107;-59
2021/12/18 07:10:42;;;;;;;47.40;22.75;;;8.40;99.90;;;;;;5044612;28;20451;-59
2021/12/18 07:13:09;;;;;;;37.90;20.60;;;8.40;99.90;;;;;;5046232;28;20470;-59
2021/12/18 07:15:37;;;;;;;38.97;20.42;;;8.40;99.90;;;;;;5047020;28;20064;-60
2021/12/18 07:18:03;;;;;;;35.25;19.92;;;8.40;99.90;;;;;;5047365;28;20076;-60
2021/12/18 07:20:31;;;;;;;35.88;19.88;;;8.30;99.90;;;;;;5046930;28;20056;-60
2021/12/18 07:22:59;;;;;;;33.85;19.08;;;8.30;99.90;;;;;;5040077;28;20044;-60
2021/12/18 07:25:27;;;;;;;39.72;20.73;;;8.30;99.90;;;;;;5046956;28;20052;-60
2021/12/18 07:27:54;;;;;;;32.83;18.45;;;8.30;99.90;;;;;;5045600;28;20053;-59
2021/12/18 07:30:21;;;;;;;37.00;19.38;;;8.30;99.90;;;;;;5041002;28;20051;-60
2021/12/18 07:32:48;;;;;;;41.70;20.33;;;8.30;99.90;;;;;;5029311;28;20408;-60
2021/12/18 07:35:15;;;;;;;37.30;20.98;;;8.30;99.90;;;;;;5044473;28;20128;-60
2021/12/18 07:37:42;;;;;;;33.80;18.15;;;8.30;99.90;;;;;;5041503;28;20064;-60
2021/12/18 07:40:09;;;;;;;38.35;19.63;;;8.30;99.90;;;;;;5046590;28;20049;-60
2021/12/18 07:42:36;;;;;;;36.92;18.48;;;8.30;99.90;;;;;;5045816;28;20045;-60
2021/12/18 07:45:04;;;;;;;38.05;19.85;;;8.30;99.90;;;;;;5046683;28;20072;-60
2021/12/18 07:47:31;;;;;;;31.73;19.05;;;8.40;99.90;;;;;;5045990;28;20211;-60
2021/12/18 07:49:58;;;;;;;40.08;19.13;;;8.40;99.90;;;;;;5047020;28;20045;-60
2021/12/18 07:52:25;;;;;;;29.45;17.88;;;8.40;99.90;;;;;;5046369;28;20044;-60
2021/12/18 07:54:51;;;;;;;35.40;19.58;;;8.30;99.90;;;;;;5046413;28;20076;-60
2021/12/18 07:57:18;;;;;;;44.92;22.48;;;8.40;99.90;;;;;;5045707;28;20041;-60
2021/12/18 07:59:45;;;;;;;38.28;18.95;;;8.40;99.90;;;;;;5047214;28;20041;-60
2021/12/18 08:02:12;;;;;;;37.78;19.30;;;8.40;99.90;;;;;;5044928;28;20057;-60
2021/12/18 08:04:39;;;;;;;39.90;21.75;;;8.40;99.90;;;;;;5046293;28;20068;-60
2021/12/18 08:07:05;;;;;;;40.30;19.13;;;8.40;99.90;;;;;;5044896;28;20136;-60
2021/12/18 08:09:32;;;;;;;36.40;19.02;;;8.40;99.90;;;;;;5047579;28;20041;-60
2021/12/18 08:11:59;;;;;;;35.90;19.60;;;8.40;99.90;;;;;;5047273;28;20053;-61
2021/12/18 08:14:26;;;;;;;34.08;17.83;;;8.40;99.90;;;;;;5047956;28;20048;-66
2021/12/18 08:16:53;;;;;;;32.50;18.88;;;8.40;99.90;;;;;;5030012;28;20049;-61
2021/12/18 08:19:20;;;;;;;34.22;18.92;;;8.40;99.90;;;;;;5047267;28;20063;-61
2021/12/18 08:21:46;;;;;;;34.80;18.45;;;8.30;99.90;;;;;;5046097;28;20130;-59
2021/12/18 08:24:13;;;;;;;35.33;18.70;;;8.30;99.90;;;;;;5044985;28;20094;-60
2021/12/18 08:26:40;;;;;;;32.08;19.40;;;8.30;99.90;;;;;;5045153;28;20118;-60
2021/12/18 08:29:07;;;;;;;36.45;19.27;;;8.40;99.90;;;;;;5045823;28;20044;-60
2021/12/18 08:31:34;;;;;;;33.72;20.05;;;8.40;99.90;;;;;;5043544;28;20411;-60
2021/12/18 08:34:00;;;;;;;35.35;19.98;;;8.40;99.90;;;;;;5045346;28;20076;-60
2021/12/18 08:36:27;;;;;;;34.67;19.17;;;8.40;99.90;;;;;;5045695;28;20048;-60
2021/12/18 08:38:54;;;;;;;28.33;18.60;;;8.40;99.90;;;;;;5046278;28;20045;-60
2021/12/18 08:41:21;;;;;;;30.75;18.05;;;8.40;99.90;;;;;;5046171;28;20045;-61
2021/12/18 08:43:49;;;;;;;29.73;17.17;;;8.40;99.90;;;;;;5045928;28;20053;-60
2021/12/18 08:46:16;;;;;;;37.35;19.13;;;8.40;99.90;;;;;;5046739;28;20045;-60
2021/12/18 08:48:43;;;;;;;34.47;19.98;;;8.40;99.90;;;;;;5043023;28;20072;-61
2021/12/18 08:51:10;;;;;;;31.65;19.38;;;8.50;99.90;;;;;;5046799;28;20114;-61
2021/12/18 08:53:37;;;;;;;37.10;20.63;;;8.50;99.90;;;;;;5048921;28;20492;-61
2021/12/18 08:56:04;;;;;;;37.05;20.50;;;8.50;99.90;;;;;;5045971;28;20500;-60
2021/12/18 08:58:30;;;;;;;32.53;19.58;;;8.50;99.90;;;;;;5046707;28;20305;-61
2021/12/18 09:00:58;;;;;;;33.33;20.50;;;8.50;99.90;;;;;;5046958;28;20106;-60
2021/12/18 09:03:25;;;;;;;31.70;18.73;;;8.50;99.90;;;;;;5044484;28;20052;-60
2021/12/18 09:05:52;;;;;;;31.33;18.13;;;8.50;99.90;;;;;;5045385;28;20072;-60
2021/12/18 09:08:19;;;;;;;27.30;17.92;;;8.50;99.90;;;;;;5046350;28;20154;-60
2021/12/18 09:10:45;;;;;;;28.27;18.10;;;8.50;99.90;;;;;;5046259;28;20080;-60
2021/12/18 09:13:12;;;;;;;30.60;18.58;;;8.50;99.90;;;;;;5026262;28;20056;-60
2021/12/18 09:15:39;;;;;;;31.70;17.33;;;8.50;99.90;;;;;;5046645;28;20483;-60
2021/12/18 09:18:06;;;;;;;28.45;18.92;;;8.50;99.90;;;;;;5046588;28;20085;-59
2021/12/18 09:20:33;;;;;;;24.90;17.77;;;8.50;99.90;;;;;;5046881;28;20041;-60
2021/12/18 09:23:00;;;;;;;25.40;16.50;;;8.50;99.90;;;;;;5045386;28;20061;-60
2021/12/18 09:25:27;;;;;;;28.15;17.55;;;8.50;99.90;;;;;;5046592;28;20493;-60
2021/12/18 09:27:56;;;;;;;30.77;19.13;;;8.50;99.90;;;;;;5046757;28;20103;-60
2021/12/18 09:30:23;;;;;;;26.27;17.50;;;8.60;99.90;;;;;;5042383;28;20076;-60
2021/12/18 09:32:50;;;;;;;26.77;16.92;;;8.50;99.90;;;;;;5046580;28;20518;-61
2021/12/18 09:35:17;;;;;;;26.85;18.20;;;8.60;99.90;;;;;;5046253;28;20045;-60
2021/12/18 09:37:44;;;;;;;24.92;18.00;;;8.60;99.90;;;;;;5046616;28;20107;-59
2021/12/18 09:40:12;;;;;;;28.95;18.05;;;8.60;99.90;;;;;;5046160;28;20122;-59
2021/12/18 09:42:39;;;;;;;29.23;18.95;;;8.60;99.90;;;;;;5039461;28;20044;-60
2021/12/18 09:45:06;;;;;;;22.45;16.20;;;8.70;99.90;;;;;;5046323;28;20057;-60
2021/12/18 09:47:33;;;;;;;25.13;16.75;;;8.60;99.90;;;;;;5045676;28;20118;-60
2021/12/18 09:50:00;;;;;;;25.73;16.65;;;8.60;99.90;;;;;;5044971;28;20072;-59
2021/12/18 09:52:27;;;;;;;25.70;17.35;;;8.60;99.90;;;;;;5043987;28;20049;-59
2021/12/18 09:54:56;;;;;;;27.08;17.20;;;8.60;99.90;;;;;;4695459;28;10000194;-60
2021/12/18 09:57:23;;;;;;;20.60;13.43;;;8.60;99.90;;;;;;5045245;28;20077;-59
2021/12/18 09:59:50;;;;;;;23.20;14.90;;;8.60;99.90;;;;;;5044604;28;20092;-59
2021/12/18 10:02:17;;;;;;;21.48;13.95;;;8.60;99.90;;;;;;5044054;28;20157;-59
2021/12/18 10:04:44;;;;;;;18.55;13.90;;;8.60;99.90;;;;;;5045248;28;20040;-58
2021/12/18 10:07:24;;;;;;;16.40;11.75;;;8.60;99.90;;;;;;5045480;28;20094;-60
2021/12/18 10:09:53;;;;;;;17.80;12.18;;;8.60;99.90;;;;;;5044825;28;20049;-59
2021/12/18 10:12:28;;;;;;;19.15;14.27;;;8.60;99.90;;;;;;5045360;28;20052;-59
2021/12/18 10:15:05;;;;;;;23.02;14.27;;;8.60;99.90;;;;;;5046348;28;20045;-59
2021/12/18 10:17:33;;;;;;;22.23;15.95;;;8.60;99.90;;;;;;5045775;28;20488;-59
2021/12/18 10:20:09;;;;;;;19.08;14.18;;;8.60;99.90;;;;;;5045953;28;20056;-59
2021/12/18 10:22:42;;;;;;;19.67;13.85;;;8.60;99.90;;;;;;5044590;28;20106;-59
2021/12/18 10:25:09;;;;;;;20.25;15.00;;;8.60;99.90;;;;;;5046154;28;20071;-60
2021/12/18 10:27:42;;;;;;;20.33;14.27;;;8.70;99.90;;;;;;5045751;28;20048;-60
2021/12/18 10:30:17;;;;;;;18.88;14.38;;;8.70;99.90;;;;;;5040665;28;20507;-59
2021/12/18 10:32:56;;;;;;;21.73;15.75;;;8.70;99.90;;;;;;5044424;28;20088;-59
2021/12/18 10:35:51;;;;;;;28.77;13.88;;;8.70;99.90;;;;;;5044580;28;20041;-59
2021/12/18 10:38:37;;;;;;;13.68;10.75;;;8.70;99.90;;;;;;5043980;28;20083;-58
2021/12/18 10:41:26;;;;;;;18.90;12.13;;;8.70;99.90;;;;;;5043761;28;20048;-59
2021/12/18 10:44:04;;;;;;;15.13;12.15;;;8.70;99.90;;;;;;5043845;28;20443;-59
2021/12/18 10:46:31;;;;;;;19.42;13.40;;;8.60;99.90;;;;;;5042834;28;20080;-59
2021/12/18 10:49:05;;;;;;;17.17;12.75;;;8.70;99.90;;;;;;5043624;28;20106;-59
2021/12/18 10:51:33;;;;;;;19.67;14.25;;;8.70;99.90;;;;;;5042756;28;20056;-58
2021/12/18 10:54:05;;;;;;;18.33;14.15;;;8.70;99.90;;;;;;5043514;28;20455;-59
2021/12/18 10:56:36;;;;;;;16.88;14.02;;;8.70;99.90;;;;;;5044873;28;20045;-59
2021/12/18 10:59:06;;;;;;;21.80;15.60;;;8.70;99.90;;;;;;5044640;28;20071;-58
2021/12/18 11:01:36;;;;;;;24.48;15.75;;;8.80;99.90;;;;;;5043201;28;20331;-60
2021/12/18 11:04:03;;;;;;;23.52;15.60;;;8.80;99.90;;;;;;5044694;28;20075;-59
2021/12/18 11:06:32;;;;;;;20.38;15.82;;;8.70;99.90;;;;;;5044593;28;20052;-59
2021/12/18 11:09:16;;;;;;;25.10;15.93;;;8.70;99.90;;;;;;5041557;28;20610;-59
2021/12/18 11:14:39;;;;;;;18.98;15.18;;;8.70;99.90;;;;;;5043805;28;20049;-59
2021/12/18 11:17:16;;;;;;;25.38;16.10;;;8.80;99.90;;;;;;5042710;28;20057;-59
2021/12/18 11:19:43;;;;;;;21.13;15.15;;;8.80;99.90;;;;;;5043689;28;20438;-59
2021/12/18 11:22:13;;;;;;;20.90;16.10;;;8.80;99.90;;;;;;5043643;28;20076;-59
2021/12/18 11:24:58;;;;;;;20.33;14.77;;;8.80;99.90;;;;;;5044699;28;20048;-59
2021/12/18 11:27:25;;;;;;;16.23;13.15;;;8.90;99.90;;;;;;5043574;28;20071;-60
2021/12/18 11:30:19;;;;;;;22.35;13.20;;;8.80;99.90;;;;;;5044701;28;20052;-58
2021/12/18 11:32:46;;;;;;;18.88;12.95;;;8.80;99.90;;;;;;5043895;28;20073;-59
2021/12/18 11:35:19;;;;;;;19.75;12.95;;;8.90;99.90;;;;;;5044255;28;20155;-59
2021/12/18 11:37:47;;;;;;;24.80;12.00;;;8.90;99.90;;;;;;5044891;28;20057;-59
2021/12/18 11:40:19;;;;;;;20.73;14.00;;;8.90;99.90;;;;;;5044480;28;20049;-59
2021/12/18 11:42:46;;;;;;;15.95;12.30;;;8.90;99.90;;;;;;5043005;28;20122;-61
2021/12/18 11:45:13;;;;;;;12.60;10.50;;;8.90;99.90;;;;;;5044311;28;20419;-60
2021/12/18 11:47:56;;;;;;;13.50;11.77;;;8.90;99.90;;;;;;5042103;28;20084;-60
2021/12/18 11:50:26;;;;;;;20.83;11.95;;;8.90;99.90;;;;;;5042119;28;20064;-60
2021/12/18 11:53:13;;;;;;;16.48;11.27;;;8.90;99.90;;;;;;5038044;28;20053;-60
2021/12/18 11:55:49;;;;;;;12.07;9.55;;;8.80;99.90;;;;;;5043624;28;20053;-59
2021/12/18 11:58:17;;;;;;;11.75;9.52;;;8.90;99.90;;;;;;5044668;28;20578;-59
2021/12/18 12:00:46;;;;;;;12.45;9.52;;;8.80;99.80;;;;;;5043481;28;20037;-59
2021/12/18 12:03:26;;;;;;;13.85;10.43;;;8.80;99.80;;;;;;5038756;28;20049;-59
2021/12/18 12:05:53;;;;;;;14.80;9.68;;;8.80;99.90;;;;;;5044270;28;20049;-60
2021/12/18 12:08:28;;;;;;;12.63;11.10;;;8.90;99.90;;;;;;5043258;28;20071;-59
2021/12/18 12:11:17;;;;;;;13.50;10.35;;;9.00;99.90;;;;;;5041488;28;20081;-63
2021/12/18 12:14:00;;;;;;;12.95;10.15;;;9.00;99.90;;;;;;5042861;28;20106;-59
2021/12/18 12:16:51;;;;;;;15.80;9.88;;;9.00;99.80;;;;;;5043408;28;20080;-59
2021/12/18 12:19:19;;;;;;;14.10;8.93;;;9.00;99.80;;;;;;5037405;28;20048;-59
2021/12/18 12:21:46;;;;;;;8.88;7.68;;;9.00;99.80;;;;;;5042961;28;20055;-60
2021/12/18 12:24:15;;;;;;;9.60;8.50;;;9.00;99.80;;;;;;5042811;28;20106;-59
2021/12/18 12:26:42;;;;;;;11.35;7.35;;;9.00;99.70;;;;;;5045972;28;20052;-59
2021/12/18 12:29:09;;;;;;;9.48;7.90;;;9.00;99.70;;;;;;5046060;28;20052;-59
2021/12/18 12:31:36;;;;;;;12.77;9.27;;;8.90;99.60;;;;;;5046289;28;20056;-60
2021/12/18 12:34:24;;;;;;;11.95;9.98;;;9.00;99.80;;;;;;5047935;28;20048;-59
2021/12/18 12:36:57;;;;;;;14.63;9.32;;;9.00;99.80;;;;;;5047458;28;20060;-60
2021/12/18 12:39:50;;;;;;;9.00;8.13;;;9.00;99.70;;;;;;5043975;28;20091;-59
2021/12/18 12:42:17;;;;;;;8.35;7.22;;;9.00;99.50;;;;;;5045389;28;20127;-60
2021/12/18 12:44:52;;;;;;;8.07;7.25;;;9.00;99.60;;;;;;5047523;28;20057;-60
2021/12/18 12:47:27;;;;;;;9.27;8.35;;;9.00;99.50;;;;;;5043817;28;20052;-60
2021/12/18 12:49:56;;;;;;;13.48;9.38;;;9.00;99.60;;;;;;5047743;28;20056;-60
2021/12/18 12:52:25;;;;;;;11.95;9.25;;;9.00;99.60;;;;;;5047064;28;20053;-60
2021/12/18 12:55:04;;;;;;;10.80;8.95;;;9.00;99.50;;;;;;5047863;28;20053;-60
2021/12/18 12:57:57;;;;;;;9.73;7.18;;;9.00;99.70;;;;;;5046275;28;20625;-59
2021/12/18 13:00:24;;;;;;;10.13;7.20;;;9.00;99.50;;;;;;5041363;28;20037;-59
2021/12/18 13:02:57;;;;;;;9.52;8.10;;;9.00;99.50;;;;;;5047252;28;20317;-59
2021/12/18 13:05:31;;;;;;;10.93;8.13;;;9.00;99.60;;;;;;5047296;28;20053;-60
2021/12/18 13:07:59;;;;;;;7.95;7.10;;;9.00;99.70;;;;;;5046863;28;20408;-60
2021/12/18 13:10:35;;;;;;;9.65;6.65;;;9.00;99.60;;;;;;5044660;28;20049;-59
2021/12/18 13:13:07;;;;;;;10.10;6.72;;;8.90;99.40;;;;;;5043137;28;20072;-59
2021/12/18 13:15:54;;;;;;;10.63;7.03;;;8.90;99.50;;;;;;5045477;28;20068;-60
2021/12/18 13:18:29;;;;;;;13.02;7.45;;;9.00;99.60;;;;;;5046980;28;20052;-59
2021/12/18 13:21:05;;;;;;;10.23;7.43;;;9.00;99.50;;;;;;5046853;28;20102;-60
2021/12/18 13:23:37;;;;;;;13.63;8.80;;;9.00;99.60;;;;;;5046756;28;20122;-59
2021/12/18 13:26:06;;;;;;;14.23;9.93;;;9.00;99.70;;;;;;5047423;28;20357;-59
2021/12/18 13:28:33;;;;;;;7.45;6.72;;;9.00;99.60;;;;;;5045324;28;20053;-59
2021/12/18 13:31:00;;;;;;;11.93;9.25;;;9.00;99.50;;;;;;5046361;28;20094;-59
2021/12/18 13:33:28;;;;;;;7.68;6.38;;;8.90;99.60;;;;;;5046507;28;20508;-61
2021/12/18 13:35:57;;;;;;;7.88;7.00;;;8.90;99.60;;;;;;5045397;28;20516;-60
2021/12/18 13:38:25;;;;;;;12.82;8.32;;;9.00;99.60;;;;;;5044828;28;20102;-59
2021/12/18 13:40:52;;;;;;;10.48;8.40;;;8.90;99.60;;;;;;5046923;28;20534;-58